Date,TemperatureHighF,TemperatureAvgF,TemperatureLowF,DewpointHighF,DewpointAvgF,DewpointLowF,HumidityHigh,HumidityAvg,HumidityLow,PressureMaxIn,PressureMinIn,WindSpeedMaxMPH,WindSpeedAvgMPH,GustSpeedMaxMPH,PrecipitationSumIn
2012-1-1,43.5,40.9,39.3,39.9,37.7,36.4,90,88,87,30.02,29.98,0,0,0,0.00
2012-1-2,56.8,45.9,38.8,52.7,42.9,35.8,92,89,83,30.17,30.02,0,0,0,0.00
2012-1-3,51.8,45.8,41.1,99.9,76.1,38.7,92,92,91,30.19,30.11,0,0,0,0.00
2012-1-4,57.0,45.7,41.5,99.9,75.2,39.9,93,90,83,30.21,30.13,0,0,0,0.00
2012-1-5,58.4,44.6,36.1,99.9,40.4,32.4,92,84,59,30.18,30.02,0,0,0,0.00
2012-1-6,54.3,41.2,33.4,49.7,37.8,30.2,91,88,83,30.07,29.96,0,0,0,0.00
2012-1-7,57.3,43.6,34.8,99.9,40.1,28.9,93,75,47,30.10,29.97,0,0,0,0.00
2012-1-8,57.3,44.0,36.5,39.8,31.9,27.6,73,63,45,30.10,30.03,0,0,0,0.00
2012-1-9,55.7,41.6,32.1,42.4,33.4,26.3,84,73,55,30.12,30.00,0,0,0,0.00
2012-1-10,54.5,42.5,33.0,99.9,61.3,29.0,98,78,66,30.03,29.92,0,0,0,0.00
2012-1-11,55.7,41.6,33.4,99.9,42.2,29.1,89,78,61,30.01,29.88,0,0,0,0.00
2012-1-12,55.2,42.3,33.4,99.9,35.1,28.2,86,73,58,29.99,29.89,0,0,0,0.00
2012-1-13,56.3,41.9,32.9,99.9,43.7,28.3,87,75,58,30.08,29.99,0,0,0,0.00
2012-1-14,56.8,41.4,32.3,44.1,34.8,28.0,88,78,59,30.06,29.94,0,0,0,0.00
2012-1-15,57.7,41.1,32.9,99.9,34.7,28.8,90,78,61,30.04,29.91,0,0,0,0.00
2012-1-16,44.9,36.2,29.1,99.9,45.2,24.9,87,71,51,30.18,30.03,0,0,0,0.00
2012-1-17,44.9,40.6,36.3,99.9,98.6,34.2,76,71,66,30.25,30.15,0,0,0,0.00
2012-1-18,44.9,44.9,44.9,99.9,99.9,99.9,66,66,66,30.23,30.23,0,0,0,0.00
2012-1-19,44.9,44.9,44.9,99.9,99.9,99.9,66,66,66,30.23,30.23,0,0,0,0.00
2012-1-20,44.9,44.9,44.9,99.9,99.9,99.9,66,66,66,30.23,30.23,0,0,0,0.00
2012-1-21,44.9,44.9,44.9,99.9,99.9,99.9,66,66,66,30.23,30.23,0,0,0,0.00
2012-1-22,44.9,44.9,44.9,99.9,99.9,99.9,66,66,66,30.23,30.23,0,0,0,0.00
2012-1-23,44.9,44.9,44.9,99.9,99.9,99.9,66,66,66,30.23,30.23,0,0,0,0.00
2012-1-24,44.9,44.9,44.9,99.9,99.9,99.9,66,66,66,30.23,30.23,0,0,0,0.00
2012-1-25,44.9,44.9,44.9,99.9,99.9,99.9,66,66,66,30.23,30.23,0,0,0,0.00
2012-1-26,44.9,44.9,44.9,99.9,99.9,99.9,66,66,66,30.23,30.23,0,0,0,0.00
2012-1-27,44.9,44.9,44.9,99.9,99.9,99.9,66,66,66,30.23,30.23,0,0,0,0.00
2012-1-28,44.9,44.9,44.9,99.9,99.9,99.9,66,66,66,30.23,30.23,0,0,0,0.00
2012-1-29,44.9,44.9,44.9,99.9,99.9,99.9,66,66,66,30.23,30.23,0,0,0,0.00
2012-1-30,44.9,44.9,44.9,99.9,99.9,99.9,66,66,66,30.23,30.23,0,0,0,0.00
2012-1-31,44.9,44.9,44.9,99.9,99.9,99.9,66,66,66,30.23,30.23,0,0,0,0.00
2012-2-1,44.9,44.9,44.9,99.9,99.9,99.9,66,66,66,30.23,30.23,0,0,0,0.00
2012-2-2,44.9,44.9,44.9,99.9,99.9,99.9,66,66,66,30.23,30.23,0,0,0,0.00
2012-2-3,44.9,44.9,44.9,99.9,99.9,99.9,66,66,66,30.23,30.23,0,0,0,0.00
2012-2-4,44.9,44.9,44.9,99.9,99.9,99.9,66,66,66,30.23,30.23,0,0,0,0.00
2012-2-5,44.9,44.9,44.9,99.9,99.9,99.9,66,66,66,30.23,30.23,0,0,0,0.00
2012-2-6,44.9,44.9,44.9,99.9,99.9,99.9,66,66,66,30.23,30.23,0,0,0,0.00
2012-2-7,44.9,44.9,44.9,99.9,99.9,99.9,66,66,66,30.23,30.23,0,0,0,0.00
2012-2-8,44.9,44.9,44.9,99.9,99.9,99.9,66,66,66,30.23,30.23,0,0,0,0.00
2012-2-9,44.9,44.9,44.9,99.9,99.9,99.9,66,66,66,30.23,30.23,0,0,0,0.00
2012-2-10,44.9,44.9,44.9,99.9,99.9,99.9,66,66,66,30.23,30.23,114,103,114,0.00
2012-2-11,44.9,44.9,44.9,99.9,99.9,99.9,66,66,66,30.23,30.23,114,114,114,0.00
2012-2-12,64.5,46.7,44.9,99.9,84.6,40.3,76,67,55,30.23,29.83,114,114,114,0.04
2012-2-13,51.8,47.5,44.0,49.2,44.1,40.2,93,88,76,29.87,29.76,114,114,114,0.00
2012-2-14,58.8,46.2,37.5,50.2,42.1,36.0,95,86,68,29.98,29.85,114,114,114,0.00
2012-2-15,55.9,47.4,39.7,45.5,36.3,30.5,92,68,38,30.03,29.91,114,114,114,0.00
2012-2-16,62.2,48.6,37.9,36.8,32.8,30.0,74,56,33,30.13,30.02,114,114,114,0.00
2012-2-17,62.7,50.2,39.0,50.8,42.1,32.1,84,74,58,30.13,30.02,114,114,114,0.00
2012-2-18,60.0,50.2,40.1,48.6,41.6,32.8,87,73,53,30.08,29.96,114,114,114,0.00
2012-2-19,55.7,46.0,36.6,41.6,36.8,31.1,82,71,54,30.02,29.91,114,114,114,0.00
2012-2-20,59.5,50.7,44.9,50.7,45.2,38.3,92,82,69,30.08,29.94,114,114,114,0.00
2012-2-21,64.9,51.5,41.5,51.6,45.2,38.2,89,80,60,30.18,30.06,114,114,114,0.00
2012-2-22,74.8,56.7,45.1,53.8,44.4,40.1,90,67,31,30.14,29.95,114,114,114,0.00
2012-2-23,72.1,56.9,46.5,47.6,38.9,32.4,84,56,25,29.96,29.80,114,114,114,0.00
2012-2-24,71.7,57.3,47.4,43.2,34.1,30.5,73,44,24,30.09,29.85,114,114,114,0.00
2012-2-25,59.3,49.8,43.3,42.7,35.8,32.0,73,59,40,30.20,30.05,114,52,114,0.00
2012-2-26,59.5,47.0,37.9,36.8,33.5,31.0,79,61,37,30.05,29.73,0,0,0,0.00
2012-2-27,57.0,44.2,35.7,39.4,33.9,29.7,82,68,51,29.84,29.69,0,0,0,0.00
2012-2-28,55.2,46.2,35.2,42.8,35.7,29.1,81,68,50,30.10,29.84,0,0,0,0.00
2012-2-29,57.0,49.4,42.8,51.7,45.0,39.0,92,85,71,30.12,29.93,0,0,0,0.00
2012-3-1,58.6,46.9,38.4,51.6,42.1,35.2,91,84,71,30.14,30.05,0,0,0,0.00
2012-3-2,59.5,47.0,37.5,42.0,36.1,32.2,90,68,39,30.23,30.11,0,0,0,0.00
2012-3-3,66.5,50.8,37.2,44.0,37.6,31.0,80,62,43,30.21,30.08,0,0,0,0.00
2012-3-4,70.8,54.5,40.8,52.3,42.6,35.7,83,66,43,30.11,29.89,0,0,0,0.00
2012-3-5,66.0,51.9,41.1,53.4,44.1,37.5,88,76,53,29.95,29.85,0,0,0,0.00
2012-3-6,54.6,48.2,42.6,45.2,38.4,33.1,91,70,47,29.91,29.81,0,0,0,0.00
2012-3-7,59.9,47.9,38.1,34.2,30.6,27.6,73,53,33,30.04,29.91,114,35,114,0.02
2012-3-8,66.0,49.8,35.2,39.0,32.7,28.9,80,55,30,30.20,30.04,114,114,114,0.06
2012-3-9,69.9,52.6,38.4,45.5,37.6,31.4,79,59,34,30.20,30.01,114,114,114,0.20
2012-3-10,60.6,49.6,37.9,48.7,41.4,32.9,83,74,64,30.02,29.84,114,114,114,0.16
2012-3-11,62.4,51.2,42.2,48.7,41.5,35.9,81,70,55,29.93,29.86,114,114,114,0.00
2012-3-12,63.6,50.1,37.0,45.5,39.9,32.3,85,69,51,29.91,29.79,114,114,114,0.04
2012-3-13,57.9,53.8,51.6,54.2,49.4,44.3,90,85,75,29.86,29.76,114,114,114,0.00
2012-3-14,59.7,56.2,53.7,56.1,52.8,50.3,90,88,87,29.98,29.83,114,88,114,0.00
2012-3-15,69.9,60.0,55.2,61.4,55.2,52.3,90,85,70,30.00,29.90,0,0,0,0.00
2012-3-16,63.1,56.8,48.3,56.1,52.2,46.1,93,85,75,29.93,29.58,0,0,0,0.00
2012-3-17,53.7,47.3,41.5,47.9,42.9,38.0,95,85,65,29.62,29.38,0,0,0,0.00
2012-3-18,54.8,45.9,41.9,43.9,39.9,37.3,92,80,57,29.81,29.52,0,0,0,0.00
2012-3-19,57.9,48.0,36.3,42.6,36.9,31.0,91,68,37,29.95,29.81,0,0,0,0.00
2012-3-20,66.3,56.4,48.7,49.9,44.6,38.9,77,65,54,30.05,29.95,0,0,0,0.00
2012-3-21,71.2,56.0,44.7,54.7,47.0,40.2,86,73,52,30.04,29.81,0,0,0,0.00
2012-3-22,60.9,53.6,41.5,51.5,42.9,31.1,86,69,38,29.89,29.79,0,0,0,0.00
2012-3-23,63.3,49.7,37.0,42.7,36.5,32.3,83,62,38,29.95,29.73,0,0,114,0.00
2012-3-24,50.5,47.9,44.9,46.7,41.9,34.1,93,81,57,29.77,29.67,0,0,114,0.00
2012-3-25,57.9,48.9,42.0,54.1,45.6,39.8,95,89,72,29.77,29.64,0,0,114,0.00
2012-3-26,60.9,49.0,37.4,50.2,42.5,35.2,93,79,60,29.95,29.77,0,0,114,0.00
2012-3-27,64.0,54.2,49.6,53.0,47.3,42.3,92,78,65,29.90,29.72,0,0,114,0.00
2012-3-28,65.6,56.5,49.1,59.8,52.0,45.0,94,85,66,29.98,29.81,0,0,114,0.00
2012-3-29,68.3,55.5,45.1,54.7,48.4,42.3,91,78,57,30.00,29.90,0,0,114,0.00
2012-3-30,70.5,58.6,48.0,56.5,50.2,44.6,88,75,58,29.97,29.77,0,0,114,0.00
2012-3-31,58.8,54.4,46.7,54.2,49.0,44.2,92,82,74,29.91,29.57,0,0,114,0.00
2012-4-1,59.3,49.9,43.5,44.9,41.8,37.1,93,75,52,30.14,29.91,0,0,114,0.00
2012-4-2,66.0,51.7,40.1,45.7,40.4,35.9,86,67,41,30.12,29.90,0,0,114,0.00
2012-4-3,65.6,53.9,43.1,50.9,44.2,36.4,84,70,54,29.98,29.85,0,0,114,0.00
2012-4-4,59.5,49.8,43.7,44.4,38.4,33.3,87,67,38,30.06,29.98,0,0,114,0.00
2012-4-5,58.2,47.3,38.8,36.8,34.0,31.2,76,61,41,30.06,29.96,0,0,114,0.00
2012-4-6,60.0,47.9,36.8,39.9,34.0,28.8,80,61,31,30.14,30.02,0,0,114,0.00
2012-4-7,67.4,51.7,38.6,43.1,37.0,30.5,76,59,37,30.03,29.87,0,0,114,0.00
2012-4-8,67.8,53.9,41.1,48.3,40.4,34.5,78,62,41,29.93,29.84,0,0,114,0.00
2012-4-9,68.7,54.5,42.4,47.4,38.5,31.2,75,57,28,29.86,29.66,0,0,114,0.00
2012-4-10,57.0,54.2,52.3,52.0,47.1,39.8,92,77,62,29.75,29.66,0,0,114,0.00
2012-4-11,59.3,53.7,47.3,54.9,49.7,45.3,93,86,74,29.86,29.66,0,0,114,0.00
2012-4-12,62.4,54.0,48.2,52.6,48.3,44.9,90,81,68,29.90,29.66,0,0,114,0.00
2012-4-13,56.6,50.8,47.1,51.0,46.3,42.5,93,85,70,29.74,29.57,114,0,114,0.00
2012-4-14,64.9,53.2,46.7,50.2,44.3,40.6,84,73,56,30.00,29.74,114,0,114,0.00
2012-4-15,65.4,52.9,42.0,54.6,44.8,37.6,85,74,58,30.08,29.99,114,1,114,0.00
2012-4-16,66.0,54.4,43.3,51.3,44.1,37.5,81,69,50,30.10,30.02,114,1,114,0.00
2012-4-17,69.4,56.9,48.0,56.8,46.9,41.8,81,70,48,30.05,29.91,114,0,114,0.00
2012-4-18,69.9,57.1,46.5,53.2,46.4,40.7,81,68,53,30.03,29.94,114,0,114,0.00
2012-4-19,73.9,62.0,50.3,60.6,52.9,44.2,82,73,62,30.03,29.90,114,1,114,0.00
2012-4-20,83.4,67.4,54.3,99.9,56.6,49.4,85,68,46,29.93,29.79,114,0,114,0.00
2012-4-21,85.6,68.7,55.2,99.9,56.4,48.3,79,63,42,29.84,29.67,0,0,114,0.00
2012-4-22,76.6,65.3,56.6,60.7,54.8,49.5,78,69,56,29.76,29.69,114,0,114,0.00
2012-4-23,70.5,63.0,58.2,56.0,52.6,49.7,78,69,58,29.85,29.74,0,0,114,0.00
2012-4-24,73.2,64.3,56.8,56.6,53.0,48.8,75,67,55,29.89,29.78,114,0,114,0.00
2012-4-25,75.2,64.4,58.2,58.0,54.1,50.0,84,70,55,29.85,29.61,0,0,114,0.00
2012-4-26,64.0,58.0,48.7,54.9,49.2,40.1,88,74,55,30.07,29.63,0,0,114,0.00
2012-4-27,67.2,55.6,46.5,99.9,46.6,39.7,78,64,44,30.10,29.98,114,1,114,0.00
2012-4-28,72.5,59.9,46.5,57.9,49.8,41.9,88,71,51,30.00,29.74,114,0,114,0.00
2012-4-29,78.6,62.5,49.8,57.2,51.4,44.8,84,69,47,29.77,29.68,0,0,114,0.00
2012-4-30,76.8,62.1,51.2,59.9,51.6,44.7,85,70,50,29.83,29.76,114,0,114,0.00
2012-5-1,68.1,56.4,46.9,51.6,44.2,38.3,82,65,45,29.81,29.76,0,0,114,0.00
2012-5-2,65.4,54.1,42.9,49.7,42.1,36.5,79,64,49,29.85,29.77,0,0,114,0.00
2012-5-3,66.0,57.6,46.5,53.0,47.9,39.4,78,70,61,29.94,29.82,0,0,114,0.00
2012-5-4,64.9,57.1,49.8,50.5,45.5,37.7,84,66,51,30.07,29.93,114,0,114,0.00
2012-5-5,73.0,57.9,44.4,47.8,41.9,37.3,80,58,34,30.07,29.89,114,1,114,0.00
2012-5-6,78.0,63.2,48.7,49.2,43.8,39.3,78,53,28,29.92,29.82,0,0,114,0.00
2012-5-7,84.5,66.7,50.3,53.4,45.2,40.8,74,49,25,29.88,29.77,0,0,114,0.00
2012-5-8,81.3,64.7,50.5,64.0,51.1,42.7,77,63,39,29.82,29.73,0,0,114,0.00
2012-5-9,74.4,61.2,50.7,59.3,52.7,44.6,89,75,57,29.81,29.73,0,0,114,0.00
2012-5-10,78.6,62.1,47.8,53.9,48.7,44.6,89,65,37,29.78,29.68,0,0,114,0.00
2012-5-11,86.1,65.4,49.8,56.5,49.9,45.8,86,62,30,29.82,29.71,0,0,114,0.00
2012-5-12,77.3,62.1,50.3,60.8,52.9,46.1,86,73,54,29.90,29.81,0,0,114,0.00
2012-5-13,69.6,60.8,53.4,57.2,52.5,44.7,88,75,60,29.93,29.84,0,0,114,0.00
2012-5-14,68.3,58.8,50.5,54.9,50.2,44.5,87,74,60,29.95,29.87,0,0,114,0.00
2012-5-15,69.0,57.5,48.5,56.0,48.9,42.6,82,73,62,29.92,29.83,0,0,114,0.00
2012-5-16,67.2,59.3,53.4,56.0,51.4,46.7,81,75,66,29.89,29.80,0,0,114,0.00
2012-5-17,71.7,59.7,52.3,54.7,49.4,42.8,84,70,48,29.82,29.74,0,0,114,0.00
2012-5-18,73.7,58.7,46.0,54.7,46.9,39.7,80,66,43,29.83,29.75,0,0,114,0.00
2012-5-19,74.1,59.9,46.9,55.5,48.2,40.4,79,66,49,29.85,29.77,0,0,114,0.00
2012-5-20,77.9,62.6,50.5,58.4,50.7,44.1,82,66,46,29.87,29.76,0,0,114,0.00
2012-5-21,74.1,61.7,51.4,58.1,51.7,45.1,80,70,51,29.96,29.87,0,0,114,0.00
2012-5-22,74.1,63.3,54.1,59.5,52.4,46.1,85,69,49,29.98,29.90,0,0,114,0.00
2012-5-23,72.1,60.8,51.0,50.2,46.6,41.9,79,61,44,29.91,29.78,0,0,114,0.00
2012-5-24,71.2,58.5,47.4,51.5,44.3,39.2,75,60,45,29.78,29.60,0,0,114,0.00
2012-5-25,64.9,55.5,49.6,45.8,42.2,39.3,69,61,49,29.70,29.59,0,0,114,0.00
2012-5-26,64.2,54.3,45.6,51.6,45.1,38.3,78,71,61,29.98,29.70,0,0,114,0.00
2012-5-27,64.5,57.0,50.9,52.6,48.6,44.9,80,74,65,30.02,29.94,0,0,114,0.00
2012-5-28,67.6,56.7,48.0,53.8,47.9,43.4,86,74,56,29.95,29.88,0,0,114,0.00
2012-5-29,67.2,56.4,-22.0,58.5,48.7,-25.0,83,76,64,29.94,29.86,0,0,114,0.00
2012-5-30,76.2,60.6,47.6,60.0,51.7,43.0,85,73,54,29.96,29.85,114,0,114,0.00
2012-5-31,80.4,64.4,49.8,61.7,53.4,44.8,87,69,50,29.90,29.70,0,0,114,0.00
2012-6-1,79.7,65.3,53.7,61.9,55.1,48.0,82,70,52,29.71,29.60,0,0,114,0.00
2012-6-2,77.5,64.6,56.1,61.4,54.1,47.4,82,70,51,29.82,29.70,0,0,114,0.00
2012-6-3,73.2,62.8,54.6,57.8,51.7,46.4,80,68,54,29.81,29.72,0,0,114,0.00
2012-6-4,63.1,58.7,55.9,55.0,50.6,47.4,83,75,67,29.91,29.74,0,0,114,0.00
2012-6-9,72.8,65.6,58.8,45.5,43.2,40.7,52,45,35,29.74,29.70,0,0,0,0.00
2012-6-10,84.0,68.9,53.7,49.8,45.9,41.0,77,47,24,29.75,29.69,0,0,0,0.00
2012-6-11,86.7,69.6,55.2,56.7,49.1,40.2,64,50,28,29.81,29.72,0,0,0,0.00
2012-6-12,83.4,67.1,53.9,61.2,52.8,46.5,77,62,41,29.82,29.74,0,0,0,0.00
2012-6-13,76.8,64.5,54.1,59.7,53.0,47.2,79,67,53,29.79,29.61,0,0,0,0.00
2012-6-14,75.5,63.4,52.5,58.8,51.6,45.3,86,67,50,29.67,29.60,0,0,0,0.00
2012-6-15,79.5,64.1,49.6,59.6,50.8,41.6,76,63,48,29.67,29.60,0,0,0,0.02
2012-6-16,93.5,74.1,56.4,66.0,56.8,49.7,80,58,32,29.69,29.59,0,0,0,0.10
2012-6-17,82.0,69.7,60.6,62.9,56.5,51.8,77,64,50,29.73,29.62,0,0,0,0.02
2012-6-18,76.4,65.7,57.3,59.7,54.4,46.5,80,68,52,29.75,29.67,0,0,0,0.00
2012-6-19,77.9,63.8,50.3,58.5,51.4,43.5,80,65,49,29.75,29.65,0,0,0,0.00
2012-6-20,95.5,69.8,53.9,61.4,53.5,46.7,80,60,24,29.69,29.61,0,0,0,0.06
2012-6-21,68.5,60.4,53.2,52.8,49.6,44.6,79,68,56,29.84,29.66,0,0,0,0.00
2012-6-22,71.6,60.0,48.7,56.3,49.7,41.8,80,69,58,29.82,29.70,0,0,0,0.00
2012-6-23,68.7,60.5,52.1,52.1,47.8,44.1,77,64,47,29.81,29.70,0,0,0,0.00
2012-6-24,68.9,58.1,46.7,56.6,46.4,39.6,77,66,51,29.90,29.80,0,0,0,0.00
2012-6-25,71.4,59.9,48.0,58.5,48.8,41.1,78,67,54,29.95,29.87,0,0,0,0.00
2012-6-26,73.0,61.3,49.2,58.1,49.6,43.1,80,66,49,29.92,29.73,0,0,0,0.00
2012-6-27,77.9,64.0,50.7,63.5,50.0,41.7,76,62,41,29.81,29.71,0,0,0,0.00
2012-6-28,75.3,63.1,52.3,62.4,51.7,43.5,80,67,52,29.94,29.81,0,0,0,0.00
2012-6-29,71.7,63.1,53.9,63.6,55.5,47.9,81,76,69,29.96,29.86,0,0,0,0.00
2012-6-30,75.0,65.2,55.2,65.5,58.2,50.4,85,78,69,29.89,29.77,0,0,0,0.00
2012-7-1,75.9,66.5,57.0,64.0,57.9,51.5,83,74,62,29.82,29.72,0,0,0,0.00
2012-7-2,73.9,66.1,57.7,63.8,57.7,51.9,86,75,62,29.77,29.70,0,0,0,0.00
2012-7-3,75.7,63.7,51.4,64.6,55.8,47.0,86,76,64,29.77,29.65,0,0,0,0.00
2012-7-4,78.6,63.6,52.1,65.0,55.4,47.6,86,75,59,29.75,29.64,0,0,0,0.00
2012-7-5,71.4,60.7,50.5,60.6,52.3,46.0,85,74,60,29.86,29.74,0,0,0,0.00
2012-7-6,75.0,61.8,50.1,62.2,53.1,44.0,82,74,60,29.88,29.80,0,0,0,0.00
2012-7-7,81.1,65.8,52.8,67.9,56.5,47.8,84,73,50,29.84,29.76,0,0,0,0.00
2012-7-8,71.7,63.2,56.8,60.4,55.5,51.4,82,76,66,29.88,29.82,0,0,0,0.00
2012-7-9,71.4,63.4,57.9,60.1,55.4,51.6,82,75,65,29.91,29.80,0,0,0,0.00
2012-7-10,68.3,58.8,55.2,61.0,53.2,50.1,84,82,73,29.82,29.76,0,0,0,0.00
2012-9-6,71.4,62.4,56.4,60.5,54.9,50.7,84,77,63,29.87,29.77,0,0,0,2.32
2012-9-7,71.4,62.7,57.2,58.4,54.0,50.4,81,74,61,29.93,29.84,0,0,0,4.00
2012-9-8,68.1,60.8,53.7,57.2,52.9,48.7,84,76,67,29.93,29.81,0,0,0,0.26
2012-9-9,72.5,60.7,51.9,59.2,51.3,46.3,82,72,57,29.85,29.75,0,0,0,0.20
2012-9-10,75.9,62.3,50.9,59.7,52.4,44.6,82,71,55,29.78,29.65,0,0,0,0.16
2012-9-11,74.1,61.5,52.1,60.9,53.6,47.3,84,76,63,29.81,29.69,0,0,0,0.31
2012-9-12,72.1,62.6,54.3,61.7,56.3,50.5,88,80,69,29.91,29.80,0,0,0,2.12
2012-9-13,67.2,59.5,56.3,61.4,54.9,51.5,87,85,81,29.94,29.88,0,0,0,0.02
2012-10-10,69.9,61.4,55.4,59.3,53.1,48.9,80,74,66,29.81,29.72,0,0,0,5.65
2012-10-11,63.6,58.1,53.2,54.8,51.8,48.2,84,80,72,29.83,29.74,0,0,0,0.00
2012-10-12,63.1,58.3,53.4,57.3,52.1,47.4,85,80,74,30.07,29.80,0,0,0,0.00
2012-10-13,69.9,58.3,49.1,56.8,51.4,45.8,89,79,60,30.17,30.02,0,0,0,0.00
2012-10-14,70.3,61.0,54.1,62.9,56.5,50.3,90,85,75,30.06,29.91,0,0,0,0.00
2012-10-15,73.7,62.5,55.7,63.5,57.2,52.5,90,84,66,29.94,29.80,0,0,0,0.00
2012-10-16,75.2,64.1,56.8,66.3,58.2,53.3,89,81,68,29.86,29.71,0,0,0,0.00
2012-10-17,78.0,63.6,52.3,56.6,49.2,41.7,89,64,32,29.77,29.65,0,0,0,0.00
2012-10-18,81.1,65.4,51.6,58.8,50.0,41.0,74,59,41,29.85,29.71,0,0,0,0.00
2012-10-19,71.7,65.4,60.9,64.0,59.3,55.4,85,81,74,29.89,29.75,0,0,0,0.00
2012-10-20,68.1,59.9,50.1,60.3,53.5,42.9,89,80,63,29.79,29.67,0,0,114,0.00
2012-10-21,64.5,53.6,44.6,51.0,44.3,39.3,83,72,54,29.81,29.71,114,2,114,0.00
2012-10-22,62.6,55.9,52.8,57.1,50.3,45.1,89,82,70,29.79,29.59,114,0,114,0.00
2012-10-23,60.2,53.9,47.4,54.1,49.3,43.1,91,85,76,29.91,29.78,0,0,114,0.18
2012-10-24,62.9,54.3,46.4,55.5,49.1,42.7,90,83,67,30.05,29.89,114,1,114,0.00
2012-10-25,62.2,56.3,51.2,57.3,52.2,48.4,90,86,81,30.11,30.02,114,2,114,0.00
2012-10-26,68.1,55.7,47.3,52.8,47.9,44.8,92,77,50,30.09,29.94,0,0,114,0.00
2012-10-27,73.5,60.4,49.8,57.8,52.1,45.8,88,75,56,29.94,29.79,0,0,114,0.00
2012-10-28,74.3,61.3,52.3,61.4,54.4,48.5,88,79,60,29.89,29.78,0,0,114,0.00
2012-10-29,68.0,58.9,52.3,60.8,54.6,48.8,90,86,78,29.96,29.87,0,0,114,0.00
2012-10-30,65.1,57.8,52.8,60.4,54.4,49.4,91,88,83,29.95,29.82,0,0,114,0.00
2012-10-31,64.5,59.8,55.0,59.0,55.8,52.4,91,87,80,29.88,29.82,0,0,114,0.00
2012-11-1,64.9,58.8,51.0,61.9,56.0,48.8,92,90,87,29.90,29.82,0,0,114,0.00
2012-11-2,62.2,53.0,45.3,55.6,49.4,43.1,92,88,77,29.95,29.87,0,0,114,0.00
2012-11-3,68.0,55.5,47.1,57.4,50.1,44.5,91,83,64,30.00,29.91,0,0,114,0.00
2012-11-4,73.4,60.0,50.5,59.1,52.6,47.1,89,77,57,30.06,29.96,0,0,114,0.00
2012-11-5,74.8,61.3,51.4,58.8,52.8,47.3,86,75,52,30.01,29.87,0,0,114,0.00
2012-11-6,74.1,60.1,50.7,61.3,53.2,45.4,87,79,55,29.93,29.83,0,0,114,0.00
2012-11-7,63.3,56.4,50.7,57.2,52.2,46.9,89,86,80,29.91,29.81,0,0,114,0.00
2012-11-8,60.9,52.9,43.3,50.5,47.0,40.6,90,81,62,29.83,29.75,0,0,114,0.00
2012-11-9,54.6,47.1,42.0,48.9,42.6,39.4,92,85,69,29.85,29.75,0,0,114,0.00
2012-11-10,56.8,47.6,40.1,46.2,40.0,34.4,89,76,56,30.10,29.85,0,0,114,0.00
2012-11-11,56.1,45.0,35.7,44.5,37.2,31.4,86,75,56,30.23,30.10,0,0,114,0.00
2012-11-12,57.9,46.9,38.4,43.0,38.5,33.7,85,73,56,30.23,30.10,0,0,114,0.00
2012-11-13,63.5,50.6,41.1,45.5,39.4,34.7,79,67,47,30.13,29.94,0,0,114,0.00
2012-11-14,64.2,52.7,45.3,49.1,43.2,38.2,78,70,57,29.98,29.86,0,0,114,0.00
2012-11-15,64.7,53.0,42.4,50.3,44.3,37.3,82,73,57,29.87,29.78,0,0,114,0.00
2012-11-16,64.7,57.0,49.2,57.0,51.9,42.7,89,83,75,29.85,29.70,0,0,114,0.00
2012-11-17,63.3,58.4,55.0,60.3,55.3,52.4,92,89,84,29.86,29.65,0,0,114,0.00
2012-11-18,58.8,53.3,47.3,54.2,50.1,45.3,93,89,77,30.03,29.86,0,0,114,0.00
2012-11-19,62.2,53.9,46.5,53.1,48.6,43.5,89,83,71,30.08,30.01,0,0,114,0.00
2012-11-20,67.2,59.1,51.2,59.1,53.9,46.9,88,83,74,30.02,29.89,0,0,114,0.00
2012-11-21,63.6,56.8,46.2,60.6,53.3,43.4,92,88,78,30.06,29.88,0,0,114,0.00
2012-11-22,60.6,50.3,43.1,49.6,44.7,40.7,92,82,63,30.11,30.02,0,0,114,0.00
2012-11-23,62.4,50.6,42.0,51.3,44.8,38.7,90,81,65,30.11,30.00,0,0,114,0.00
2012-11-24,64.0,51.7,43.3,53.4,45.9,40.0,89,81,65,30.04,29.88,0,0,114,0.00
2012-11-25,58.6,50.8,44.4,54.1,47.2,41.2,90,88,85,29.89,29.78,0,0,114,0.00
2012-11-26,60.4,49.5,41.3,53.3,45.6,38.9,91,87,74,29.93,29.82,0,0,114,0.00
2012-11-27,60.0,53.8,48.3,53.9,49.4,45.2,90,85,78,29.96,29.83,0,0,114,0.00
2012-11-28,60.6,55.4,51.2,57.9,51.8,49.1,93,88,80,29.91,29.69,0,0,114,0.00
2012-11-29,58.8,56.4,50.9,57.1,54.0,48.9,96,92,90,29.91,29.73,0,0,114,0.00
2012-11-30,60.4,58.1,54.3,58.7,56.3,52.9,95,94,93,29.88,29.65,0,0,114,0.00
2012-12-1,62.2,58.3,54.8,60.7,56.8,53.4,95,95,95,29.90,29.76,0,0,114,0.00
2012-12-2,59.9,55.2,45.6,58.4,53.7,44.3,95,95,93,29.97,29.63,0,0,114,0.00
2012-12-3,57.5,49.0,41.5,54.4,47.2,40.2,96,93,86,30.05,29.95,0,0,114,0.00
2012-12-4,60.9,54.0,47.4,57.2,51.5,45.5,94,91,86,30.08,29.99,0,0,114,0.00
2012-12-5,64.0,59.2,56.1,61.9,57.0,53.2,94,92,90,30.01,29.92,0,0,114,0.00
2012-12-6,58.2,54.6,48.0,56.2,52.7,46.0,95,93,90,29.99,29.91,0,0,114,0.00
2012-12-7,60.0,49.6,43.1,53.8,46.5,40.4,94,89,76,30.00,29.91,0,0,114,0.00
2012-12-8,56.4,47.4,39.3,50.0,43.4,37.2,92,86,73,29.96,29.88,0,0,114,0.00
2012-12-9,60.0,49.7,42.9,49.0,43.8,39.9,90,81,62,30.05,29.94,0,0,114,0.00
2012-12-10,63.3,52.5,45.8,49.5,44.9,41.3,87,76,55,30.08,29.95,0,0,114,0.00
2012-12-11,58.2,49.5,40.8,51.9,44.9,37.4,89,84,77,29.95,29.71,0,0,114,0.00
2012-12-12,53.4,48.3,40.8,49.8,45.0,38.3,92,89,80,29.77,29.68,0,0,114,0.00
2012-12-13,50.3,42.6,37.0,44.2,38.9,34.9,92,87,74,29.77,29.70,0,0,114,0.00
2012-12-14,51.9,43.5,35.7,46.8,39.2,32.8,90,85,74,29.88,29.67,0,0,0,0.00
2012-12-15,47.8,42.7,34.8,44.4,40.0,32.2,93,90,87,29.94,29.82,0,0,0,0.00
2012-12-16,56.1,49.8,41.9,53.6,47.7,40.3,94,92,91,29.96,29.87,0,0,0,0.00
2012-12-17,57.7,52.2,45.3,55.4,50.0,43.6,94,92,90,29.93,29.82,0,0,0,0.00
2012-12-18,50.5,45.4,39.0,44.0,40.1,37.4,95,82,64,29.95,29.84,0,0,0,0.00
2012-12-19,47.8,40.6,36.6,35.0,31.9,29.8,76,71,61,30.09,30.07,0,0,0,0.00
2012-12-20,54.6,45.7,36.1,45.0,38.0,29.6,80,74,69,30.07,29.86,0,0,0,0.00
2012-12-21,55.9,52.8,50.1,49.5,45.8,41.8,86,77,66,29.87,29.71,0,0,0,0.00
2012-12-22,54.3,53.0,50.9,49.7,49.1,48.4,93,87,83,29.76,29.69,0,0,0,0.00
2012-12-27,46.2,42.5,40.8,44.3,40.6,38.9,93,93,93,30.03,29.99,0,0,0,0.00
2012-12-28,51.2,44.2,37.2,49.0,42.2,35.3,94,93,92,30.04,29.87,0,0,0,0.00
2012-12-29,49.8,45.1,39.7,48.4,43.7,38.4,96,95,93,29.94,29.84,0,0,0,0.00
2012-12-30,51.0,42.9,37.0,47.9,40.9,35.4,95,93,88,30.03,29.89,0,0,0,0.00
2012-12-31,49.2,42.1,35.7,42.2,36.9,33.6,92,82,59,30.15,30.03,0,0,0,0.00
2013-1-1,49.6,42.8,37.2,41.6,37.4,32.5,88,81,71,30.13,30.06,0,0,0,0.00